createdAt,value
2023-02-08T00:00:44.500Z,27.70
2023-02-08T00:03:14.164Z,29.20
2023-02-08T00:05:43.811Z,28.10
2023-02-08T00:08:13.155Z,30.50
2023-02-08T00:10:43.040Z,27.30
2023-02-08T00:13:12.656Z,28.60
2023-02-08T00:15:44.481Z,28.80
2023-02-08T00:18:14.415Z,28.40
2023-02-08T00:20:44.944Z,31.60
2023-02-08T00:23:15.528Z,27.80
2023-02-08T00:25:45.400Z,28.40
2023-02-08T00:28:17.046Z,28.90
2023-02-08T00:30:47.257Z,28.70
2023-02-08T00:33:17.691Z,29.20
2023-02-08T00:35:47.238Z,27.30
2023-02-08T00:38:19.950Z,29.80
2023-02-08T00:40:51.943Z,29.30
2023-02-08T00:43:22.636Z,27.70
2023-02-08T00:45:55.850Z,31.40
2023-02-08T00:48:27.960Z,29.20
2023-02-08T00:51:03.253Z,29.30
2023-02-08T00:53:36.902Z,29.10
2023-02-08T00:56:09.760Z,32.30
2023-02-08T00:58:39.761Z,29.50
2023-02-08T01:01:09.293Z,26.30
2023-02-08T01:03:41.082Z,27.60
2023-02-08T01:06:14.070Z,26.50
2023-02-08T01:08:43.230Z,25.40
2023-02-08T01:11:14.543Z,28.00
2023-02-08T01:13:43.815Z,29.10
2023-02-08T01:16:15.150Z,27.90
2023-02-08T01:18:46.510Z,29.00
2023-02-08T01:21:19.241Z,28.70
2023-02-08T01:23:49.623Z,29.40
2023-02-08T01:26:33.860Z,28.40
2023-02-08T01:29:06.913Z,28.20
2023-02-08T01:31:37.874Z,29.10
2023-02-08T01:34:09.437Z,29.30
2023-02-08T01:36:39.702Z,30.20
2023-02-08T01:39:12.495Z,29.50
2023-02-08T01:41:44.018Z,31.50
2023-02-08T01:44:49.092Z,29.60
2023-02-08T01:47:19.031Z,29.80
2023-02-08T01:49:48.730Z,31.00
2023-02-08T01:52:21.819Z,29.50
2023-02-08T01:54:54.420Z,28.50
2023-02-08T01:57:25.431Z,29.10
2023-02-08T01:59:59.530Z,30.30
2023-02-08T02:02:29.361Z,30.30
2023-02-08T02:04:58.877Z,31.70
2023-02-08T02:07:32.772Z,30.00
2023-02-08T02:10:07.921Z,30.30
2023-02-08T02:12:40.819Z,31.50
2023-02-08T02:15:11.240Z,30.10
2023-02-08T02:17:41.926Z,31.00
2023-02-08T02:20:18.739Z,29.90
2023-02-08T02:23:17.200Z,30.30
2023-02-08T02:26:02.078Z,30.40
2023-02-08T02:29:08.974Z,30.90
2023-02-08T02:32:16.880Z,33.40
2023-02-08T02:34:53.390Z,30.70
2023-02-08T02:37:38.067Z,31.60
2023-02-08T02:40:15.594Z,32.80
2023-02-08T02:43:16.509Z,31.20
2023-02-08T02:45:54.734Z,28.80
2023-02-08T02:48:32.924Z,30.20
2023-02-08T02:51:09.116Z,30.00
2023-02-08T02:53:46.138Z,30.30
2023-02-08T02:56:21.238Z,30.30
2023-02-08T02:58:51.303Z,33.20
2023-02-08T03:01:25.763Z,32.20
2023-02-08T03:03:56.104Z,32.60
2023-02-08T03:06:43.529Z,30.70
2023-02-08T03:09:35.820Z,32.90
2023-02-08T03:12:15.970Z,30.10
2023-02-08T03:14:54.269Z,31.80
2023-02-08T03:17:35.322Z,32.00
2023-02-08T03:20:09.806Z,33.80
2023-02-08T03:22:46.114Z,33.10
2023-02-08T03:25:21.371Z,31.90
2023-02-08T03:28:02.004Z,31.00
2023-02-08T03:30:38.527Z,32.60
2023-02-08T03:33:14.582Z,32.90
2023-02-08T03:35:49.770Z,33.20
2023-02-08T03:38:24.788Z,33.30
2023-02-08T03:40:57.951Z,31.70
2023-02-08T03:43:34.326Z,23.40
2023-02-08T03:46:11.426Z,31.70
2023-02-08T03:48:44.431Z,31.80
2023-02-08T03:51:15.541Z,29.40
2023-02-08T03:53:47.495Z,29.80
2023-02-08T03:56:21.750Z,30.40
2023-02-08T03:58:59.035Z,29.10
2023-02-08T04:01:36.519Z,32.00
2023-02-08T04:04:06.596Z,29.90
2023-02-08T04:06:36.225Z,32.80
2023-02-08T04:09:06.203Z,28.50
2023-02-08T04:11:35.474Z,31.40
2023-02-08T04:14:04.905Z,30.50
2023-02-08T04:16:35.341Z,29.60
2023-02-08T04:19:04.783Z,29.10
2023-02-08T04:21:34.023Z,29.40
2023-02-08T04:24:03.384Z,30.70
2023-02-08T04:26:33.233Z,30.80
2023-02-08T04:29:03.094Z,31.30
2023-02-08T04:31:33.026Z,29.00
2023-02-08T04:34:02.906Z,30.50
2023-02-08T04:36:32.289Z,29.30
2023-02-08T04:39:02.799Z,28.10
2023-02-08T04:41:32.826Z,30.50
2023-02-08T04:44:02.399Z,30.50
2023-02-08T04:46:31.674Z,31.60
2023-02-08T04:49:01.189Z,29.90
2023-02-08T04:51:30.441Z,28.30
2023-02-08T04:54:02.950Z,27.00
2023-02-08T04:56:32.838Z,19.90
2023-02-08T04:59:03.290Z,27.10
2023-02-08T05:01:32.964Z,30.00
2023-02-08T05:04:02.587Z,29.20
2023-02-08T05:06:31.856Z,30.80
2023-02-08T05:09:01.415Z,32.60
2023-02-08T05:11:30.973Z,31.30
2023-02-08T05:14:00.608Z,29.60
2023-02-08T05:16:33.061Z,29.20
2023-02-08T05:19:02.595Z,29.00
2023-02-08T05:21:32.312Z,28.10
2023-02-08T05:24:03.040Z,27.30
2023-02-08T05:26:33.095Z,24.90
2023-02-08T05:29:02.761Z,25.50
2023-02-08T05:31:32.207Z,25.40
2023-02-08T05:34:01.849Z,22.30
2023-02-08T05:36:31.133Z,24.00
2023-02-08T05:39:03.232Z,24.70
2023-02-08T05:41:32.641Z,21.90
2023-02-08T05:44:03.379Z,20.90
2023-02-08T05:46:33.094Z,24.80
2023-02-08T05:49:03.149Z,22.10
2023-02-08T05:51:32.998Z,22.50
2023-02-08T05:54:02.574Z,24.10
2023-02-08T05:56:32.202Z,24.10
2023-02-08T05:59:03.278Z,21.40
2023-02-08T06:01:32.704Z,17.70
2023-02-08T06:04:02.741Z,21.50
2023-02-08T06:06:32.278Z,22.40
2023-02-08T06:09:01.812Z,22.40
2023-02-08T06:11:31.398Z,22.30
2023-02-08T06:14:01.149Z,22.50
2023-02-08T06:16:30.946Z,21.90
2023-02-08T06:19:01.276Z,21.90
2023-02-08T06:21:30.850Z,21.20
2023-02-08T06:24:00.366Z,20.40
2023-02-08T06:26:32.118Z,22.00
2023-02-08T06:29:01.855Z,22.10
2023-02-08T06:31:31.366Z,21.20
2023-02-08T06:34:00.797Z,21.40
2023-02-08T06:36:33.578Z,21.10
2023-02-08T06:39:03.228Z,19.50
2023-02-08T06:41:32.570Z,20.20
2023-02-08T06:44:04.840Z,21.00
2023-02-08T06:46:37.598Z,21.40
2023-02-08T06:49:07.006Z,22.80
2023-02-08T06:51:36.671Z,23.20
2023-02-08T06:54:06.019Z,25.10
2023-02-08T06:56:35.365Z,22.10
2023-02-08T06:59:04.937Z,23.50
2023-02-08T07:01:35.089Z,23.00
2023-02-08T07:04:05.157Z,24.10
2023-02-08T07:06:35.057Z,21.30
2023-02-08T07:09:04.522Z,23.20
2023-02-08T07:11:33.889Z,22.70
2023-02-08T07:14:03.250Z,20.60
2023-02-08T07:16:32.555Z,22.50
2023-02-08T07:19:02.099Z,22.30
2023-02-08T07:21:31.931Z,20.20
2023-02-08T07:24:01.179Z,19.80
2023-02-08T07:26:31.172Z,19.70
2023-02-08T07:29:00.982Z,19.30
2023-02-08T07:31:33.634Z,14.20
2023-02-08T07:34:05.799Z,18.50
2023-02-08T07:36:35.872Z,14.90
2023-02-08T07:39:05.863Z,15.80
2023-02-08T07:41:35.449Z,14.30
2023-02-08T07:44:05.343Z,13.30
2023-02-08T07:46:34.865Z,14.30
2023-02-08T07:49:05.418Z,13.90
2023-02-08T07:51:35.145Z,13.70
2023-02-08T07:54:04.763Z,13.10
2023-02-08T07:56:34.175Z,14.40
2023-02-08T07:59:06.587Z,14.20
2023-02-08T08:01:36.184Z,14.90
2023-02-08T08:04:06.228Z,13.70
2023-02-08T08:06:35.901Z,14.20
2023-02-08T08:09:06.109Z,15.20
2023-02-08T08:11:37.032Z,13.40
2023-02-08T08:14:06.388Z,13.80
2023-02-08T08:16:35.862Z,14.70
2023-02-08T08:19:05.488Z,12.10
2023-02-08T08:21:37.283Z,14.90
2023-02-08T08:24:09.319Z,16.10
2023-02-08T08:26:48.686Z,17.10
2023-02-08T08:29:18.991Z,18.50
2023-02-08T08:31:48.427Z,18.60
2023-02-08T08:34:17.925Z,19.20
2023-02-08T08:36:48.506Z,20.70
2023-02-08T08:39:18.729Z,18.70
2023-02-08T08:41:50.447Z,20.60
2023-02-08T08:44:20.070Z,20.30
2023-02-08T08:46:49.785Z,20.00
2023-02-08T08:49:19.226Z,21.10
2023-02-08T08:51:48.789Z,19.90
2023-02-08T08:54:19.054Z,19.90
2023-02-08T08:56:48.605Z,18.40
2023-02-08T08:59:18.362Z,19.40
2023-02-08T09:01:48.004Z,21.30
2023-02-08T09:04:17.585Z,21.40
2023-02-08T09:06:46.963Z,19.70
2023-02-08T09:09:16.611Z,20.50
2023-02-08T09:11:46.528Z,20.30
2023-02-08T09:14:16.314Z,19.60
2023-02-08T09:16:47.665Z,68.20
2023-02-08T09:19:17.323Z,116.30
2023-02-08T09:21:46.760Z,123.70
2023-02-08T09:24:16.329Z,28.00
2023-02-08T09:26:46.014Z,309.70
2023-02-08T09:29:15.836Z,279.80
2023-02-08T09:31:45.620Z,46.50
2023-02-08T09:34:15.140Z,51.70
2023-02-08T09:36:44.580Z,21.10
2023-02-08T09:39:20.383Z,23.30
2023-02-08T09:42:12.494Z,19.10
2023-02-08T09:44:59.099Z,19.10
2023-02-08T09:47:34.052Z,18.30
2023-02-08T09:50:11.269Z,18.90
2023-02-08T09:52:47.695Z,18.60
2023-02-08T09:55:28.085Z,17.40
2023-02-08T09:58:01.479Z,16.60
2023-02-08T10:00:36.833Z,16.90
2023-02-08T10:03:13.653Z,18.70
2023-02-08T10:05:43.235Z,16.50
2023-02-08T10:08:13.209Z,15.80
2023-02-08T10:10:54.765Z,15.70
2023-02-08T10:13:44.268Z,14.80
2023-02-08T10:16:35.645Z,14.50
2023-02-08T10:19:14.494Z,14.20
2023-02-08T10:21:55.508Z,17.20
2023-02-08T10:24:40.803Z,16.40
2023-02-08T10:27:17.187Z,13.20
2023-02-08T10:30:11.936Z,13.90
2023-02-08T10:32:50.282Z,15.50
2023-02-08T10:35:27.668Z,15.70
2023-02-08T10:37:58.459Z,16.10
2023-02-08T10:40:35.334Z,14.20
2023-02-08T10:43:17.639Z,21.70
2023-02-08T10:46:00.977Z,14.00
2023-02-08T10:48:45.284Z,12.90
2023-02-08T10:51:20.307Z,14.90
2023-02-08T10:53:50.272Z,16.90
2023-02-08T10:56:41.149Z,16.20
2023-02-08T10:59:17.557Z,30.60
2023-02-08T11:01:48.873Z,15.90
2023-02-08T11:04:18.928Z,15.50
2023-02-08T11:06:54.300Z,14.50
2023-02-08T11:09:29.979Z,15.00
2023-02-08T11:12:08.140Z,14.00
2023-02-08T11:14:50.631Z,13.10
2023-02-08T11:17:27.496Z,13.00
2023-02-08T11:19:58.282Z,12.50
2023-02-08T11:22:31.192Z,11.00
2023-02-08T11:25:05.129Z,10.20
2023-02-08T11:27:37.177Z,11.70
2023-02-08T11:30:23.805Z,15.20
2023-02-08T11:33:22.429Z,14.00
2023-02-08T11:36:13.167Z,12.30
2023-02-08T11:38:45.145Z,12.30
2023-02-08T11:41:20.216Z,11.60
2023-02-08T11:44:17.285Z,12.80
2023-02-08T11:46:49.853Z,17.90
2023-02-08T11:49:24.202Z,14.60
2023-02-08T11:51:54.139Z,12.30
2023-02-08T11:54:40.885Z,10.80
2023-02-08T11:57:16.970Z,10.80
2023-02-08T11:59:48.972Z,9.00
2023-02-08T12:02:37.214Z,10.00
2023-02-08T12:05:13.727Z,10.50
2023-02-08T12:07:55.635Z,13.40
2023-02-08T12:10:52.872Z,10.70
2023-02-08T12:13:50.045Z,10.90
2023-02-08T12:16:36.504Z,9.30
2023-02-08T12:19:26.679Z,9.60
2023-02-08T12:22:03.774Z,7.60
2023-02-08T12:24:40.835Z,6.60
2023-02-08T12:27:27.017Z,7.40
2023-02-08T12:30:04.127Z,7.60
2023-02-08T12:33:05.442Z,6.90
2023-02-08T12:36:13.696Z,7.10
2023-02-08T12:39:19.574Z,6.60
2023-02-08T12:42:10.197Z,6.70
2023-02-08T12:44:52.688Z,7.50
2023-02-08T12:47:38.109Z,6.80
2023-02-08T12:50:24.008Z,7.50
2023-02-08T12:52:57.467Z,6.70
2023-02-08T12:55:30.260Z,7.40
2023-02-08T12:58:06.988Z,7.60
2023-02-08T13:00:41.392Z,7.40
2023-02-08T13:03:17.745Z,8.30
2023-02-08T13:06:13.893Z,6.70
2023-02-08T13:08:48.858Z,7.10
2023-02-08T13:11:28.091Z,7.40
2023-02-08T13:14:03.566Z,7.60
2023-02-08T13:16:38.270Z,8.40
2023-02-08T13:19:24.898Z,8.10
2023-02-08T13:21:58.945Z,7.50
2023-02-08T13:24:34.904Z,8.00
2023-02-08T13:27:16.178Z,7.50
2023-02-08T13:29:48.317Z,7.70
2023-02-08T13:32:22.430Z,7.90
2023-02-08T13:34:55.023Z,8.20
2023-02-08T13:40:05.808Z,7.60
2023-02-08T13:42:39.183Z,10.60
2023-02-08T13:45:10.973Z,9.90
2023-02-08T13:47:48.102Z,8.90
2023-02-08T13:50:47.271Z,9.00
2023-02-08T13:53:18.513Z,8.20
2023-02-08T13:56:06.238Z,8.60
2023-02-08T13:59:00.765Z,14.00
2023-02-08T14:04:40.427Z,15.80
2023-02-08T14:07:23.600Z,11.10
2023-02-08T14:10:08.275Z,11.60
2023-02-08T14:12:43.324Z,9.50
2023-02-08T14:15:43.299Z,9.00
2023-02-08T14:18:26.825Z,8.40
2023-02-08T14:21:04.992Z,11.10
2023-02-08T14:23:40.136Z,11.10
2023-02-08T14:26:20.407Z,10.20
2023-02-08T14:28:56.425Z,10.90
2023-02-08T14:31:38.256Z,13.70
2023-02-08T14:34:20.753Z,13.40
2023-02-08T14:37:03.276Z,12.00
2023-02-08T14:39:34.400Z,11.40
2023-02-08T14:42:06.889Z,10.80
2023-02-08T14:45:04.772Z,10.90
2023-02-08T14:48:20.115Z,10.40
2023-02-08T14:51:19.713Z,12.40
2023-02-08T14:53:52.772Z,12.30
2023-02-08T14:56:26.128Z,11.80
2023-02-08T14:59:00.403Z,10.50
2023-02-08T15:01:44.503Z,11.30
2023-02-08T15:04:17.805Z,11.50
2023-02-08T15:07:23.750Z,9.30
2023-02-08T15:09:53.536Z,10.10
2023-02-08T15:12:26.552Z,11.60
2023-02-08T15:14:58.242Z,10.50
2023-02-08T15:17:34.360Z,10.40
2023-02-08T15:20:08.093Z,9.90
2023-02-08T15:25:23.717Z,11.10
2023-02-08T15:27:55.593Z,10.20
2023-02-08T15:30:28.503Z,11.10
2023-02-08T15:32:58.650Z,10.30
2023-02-08T15:35:29.450Z,10.00
2023-02-08T15:37:59.240Z,11.20
2023-02-08T15:40:33.322Z,10.60
2023-02-08T15:43:13.376Z,11.40
2023-02-08T15:45:43.145Z,24.40
2023-02-08T15:48:12.928Z,13.20
2023-02-08T15:50:42.730Z,19.80
2023-02-08T15:53:15.561Z,13.50
2023-02-08T15:55:51.218Z,17.40
2023-02-08T15:58:28.322Z,12.60
2023-02-08T16:01:01.311Z,16.20
2023-02-08T16:03:32.528Z,13.80
2023-02-08T16:06:05.182Z,15.10
2023-02-08T16:08:37.080Z,10.10
2023-02-08T16:11:12.800Z,13.30
2023-02-08T16:13:49.643Z,13.70
2023-02-08T16:16:22.078Z,13.10
2023-02-08T16:18:59.984Z,12.30
2023-02-08T16:21:34.358Z,11.90
2023-02-08T16:24:19.450Z,12.80
2023-02-08T16:26:55.787Z,16.20
2023-02-08T16:29:28.488Z,28.20
2023-02-08T16:32:01.391Z,16.00
2023-02-08T16:34:33.486Z,15.60
2023-02-08T16:37:07.357Z,18.80
2023-02-08T16:39:54.389Z,17.80
2023-02-08T16:42:30.489Z,16.10
2023-02-08T16:45:18.136Z,19.50
2023-02-08T16:47:54.990Z,17.10
2023-02-08T16:50:26.955Z,15.40
2023-02-08T16:52:59.966Z,14.30
2023-02-08T16:55:32.097Z,13.20
2023-02-08T16:58:01.719Z,11.90
2023-02-08T17:00:32.817Z,15.00
2023-02-08T17:03:02.572Z,12.40
2023-02-08T17:05:37.868Z,11.60
2023-02-08T17:08:11.790Z,11.00
2023-02-08T17:10:42.849Z,23.30
2023-02-08T17:13:20.998Z,16.70
2023-02-08T17:15:51.978Z,17.10
2023-02-08T17:18:22.799Z,14.50
2023-02-08T17:20:57.464Z,14.00
2023-02-08T17:23:27.384Z,13.00
2023-02-08T17:26:01.069Z,14.30
2023-02-08T17:28:42.138Z,13.70
2023-02-08T17:31:13.465Z,13.70
2023-02-08T17:33:43.257Z,13.60
2023-02-08T17:36:18.302Z,14.00
2023-02-08T17:38:48.278Z,15.20
2023-02-08T17:41:20.006Z,12.30
2023-02-08T17:43:51.662Z,13.50
2023-02-08T17:46:25.332Z,14.10
2023-02-08T17:48:55.596Z,13.80
2023-02-08T17:51:28.588Z,14.60
2023-02-08T17:53:58.322Z,13.00
2023-02-08T17:56:31.227Z,14.10
2023-02-08T17:59:03.432Z,14.40
2023-02-08T18:01:37.729Z,15.90
2023-02-08T18:04:10.834Z,15.50
2023-02-08T18:06:40.712Z,14.50
2023-02-08T18:09:13.995Z,15.10
2023-02-08T18:11:44.805Z,15.60
2023-02-08T18:14:15.543Z,16.10
2023-02-08T18:16:45.103Z,15.00
2023-02-08T18:19:16.494Z,16.50
2023-02-08T18:21:51.905Z,16.60
2023-02-08T18:24:24.793Z,18.40
2023-02-08T18:26:55.192Z,19.80
2023-02-08T18:29:30.690Z,22.30
2023-02-08T18:32:01.336Z,25.60
2023-02-08T18:34:33.012Z,24.20
2023-02-08T18:37:06.670Z,25.70
2023-02-08T18:39:36.546Z,28.70
2023-02-08T18:42:06.294Z,35.00
2023-02-08T18:44:40.056Z,22.10
2023-02-08T18:47:14.858Z,23.40
2023-02-08T18:49:47.375Z,25.80
2023-02-08T18:52:17.070Z,23.80
2023-02-08T18:54:46.709Z,23.30
2023-02-08T18:57:16.487Z,24.50
2023-02-08T18:59:46.481Z,23.10
2023-02-08T19:02:21.018Z,20.50
2023-02-08T19:04:50.979Z,24.30
2023-02-08T19:07:20.642Z,23.60
2023-02-08T19:09:50.207Z,25.80
2023-02-08T19:12:20.660Z,26.30
2023-02-08T19:14:51.515Z,22.20
2023-02-08T19:17:21.178Z,22.20
2023-02-08T19:19:50.583Z,23.00
2023-02-08T19:22:20.300Z,21.50
2023-02-08T19:24:53.677Z,24.20
2023-02-08T19:29:55.869Z,24.40
2023-02-08T19:32:25.654Z,22.80
2023-02-08T19:35:03.831Z,22.40
2023-02-08T19:37:43.174Z,21.60
2023-02-08T19:40:17.222Z,21.70
2023-02-08T19:42:47.163Z,21.70
2023-02-08T19:45:17.312Z,22.40
2023-02-08T19:47:51.413Z,21.50
2023-02-08T19:50:21.929Z,24.90
2023-02-08T19:52:51.468Z,25.50
2023-02-08T19:55:23.013Z,25.40
2023-02-08T19:58:00.686Z,29.40
2023-02-08T20:00:31.415Z,28.00
2023-02-08T20:03:07.809Z,30.50
2023-02-08T20:05:46.108Z,29.30
2023-02-08T20:08:17.588Z,31.30
2023-02-08T20:10:48.846Z,30.90
2023-02-08T20:13:19.487Z,31.30
2023-02-08T20:15:49.660Z,33.00
2023-02-08T20:18:22.526Z,28.70
2023-02-08T20:21:01.691Z,22.10
2023-02-08T20:23:31.914Z,26.60
2023-02-08T20:26:14.051Z,26.80
2023-02-08T20:28:45.692Z,29.30
2023-02-08T20:31:18.459Z,27.00
2023-02-08T20:33:48.335Z,27.40
2023-02-08T20:36:19.937Z,29.00
2023-02-08T20:38:51.164Z,29.50
2023-02-08T20:41:22.260Z,26.70
2023-02-08T20:43:52.523Z,21.90
2023-02-08T20:46:24.339Z,26.70
2023-02-08T20:48:55.503Z,25.30
2023-02-08T20:51:28.037Z,23.60
2023-02-08T20:53:59.163Z,24.50
2023-02-08T20:56:31.765Z,29.30
2023-02-08T20:59:05.381Z,22.20
2023-02-08T21:04:06.147Z,27.50
2023-02-08T21:06:37.506Z,29.60
2023-02-08T21:09:09.115Z,29.40
2023-02-08T21:11:39.332Z,32.60
2023-02-08T21:14:13.228Z,32.90
2023-02-08T21:16:43.125Z,31.80
2023-02-08T21:19:15.080Z,29.80
2023-02-08T21:21:44.945Z,30.10
2023-02-08T21:24:15.725Z,33.10
2023-02-08T21:26:46.415Z,33.90
2023-02-08T21:29:23.016Z,34.10
2023-02-08T21:31:54.008Z,26.30
2023-02-08T21:34:24.357Z,32.10
2023-02-08T21:36:54.194Z,32.00
2023-02-08T21:39:23.960Z,30.40
2023-02-08T21:41:55.563Z,33.40
2023-02-08T21:44:25.099Z,30.90
2023-02-08T21:46:54.841Z,31.20
2023-02-08T21:49:43.051Z,34.50
2023-02-08T21:52:31.251Z,32.50
2023-02-08T21:55:00.911Z,29.50
2023-02-08T21:57:37.551Z,27.90
2023-02-08T22:00:10.450Z,28.10
2023-02-08T22:02:45.584Z,26.90
2023-02-08T22:05:15.233Z,30.00
2023-02-08T22:07:48.036Z,28.90
2023-02-08T22:10:21.091Z,30.00
2023-02-08T22:12:52.170Z,27.70
2023-02-08T22:15:24.281Z,28.80
2023-02-08T22:17:55.102Z,26.50
2023-02-08T22:20:24.883Z,26.40
2023-02-08T22:22:55.518Z,26.40
2023-02-08T22:25:25.801Z,27.80
2023-02-08T22:27:58.163Z,27.10
2023-02-08T22:30:28.147Z,25.30
2023-02-08T22:32:58.532Z,26.10
2023-02-08T22:35:28.274Z,25.70
2023-02-08T22:37:58.071Z,26.50
2023-02-08T22:40:28.078Z,26.70
2023-02-08T22:42:58.136Z,27.80
2023-02-08T22:45:27.857Z,27.10
2023-02-08T22:47:57.579Z,27.40
2023-02-08T22:50:27.837Z,26.60
2023-02-08T22:52:57.256Z,24.30
2023-02-08T22:55:27.187Z,25.80
2023-02-08T22:57:56.956Z,26.10
2023-02-08T23:00:26.577Z,25.20
2023-02-08T23:02:56.928Z,26.90
2023-02-08T23:05:26.729Z,26.60
2023-02-08T23:07:56.875Z,27.10
2023-02-08T23:10:26.655Z,26.10
2023-02-08T23:12:56.897Z,26.00
2023-02-08T23:15:27.191Z,24.90
2023-02-08T23:17:57.943Z,27.00
2023-02-08T23:20:28.220Z,27.30
2023-02-08T23:22:58.204Z,27.10
2023-02-08T23:25:28.025Z,27.10
2023-02-08T23:27:59.241Z,26.30
2023-02-08T23:30:29.132Z,26.50
2023-02-08T23:32:59.029Z,25.80
2023-02-08T23:35:28.821Z,23.70
2023-02-08T23:37:58.438Z,27.60
2023-02-08T23:40:31.123Z,23.90
2023-02-08T23:43:02.514Z,22.90
2023-02-08T23:45:34.137Z,25.20
2023-02-08T23:48:05.497Z,24.90
2023-02-08T23:50:37.562Z,24.10
2023-02-08T23:53:08.460Z,25.50
2023-02-08T23:55:39.522Z,27.50
2023-02-08T23:58:10.416Z,25.00
